Time;durP1;ratioP1;P1;durP2;ratioP2;P2;SDS_P1;SDS_P2;PMS_P1;PMS_P2;Temp;Humidity;BMP_temperature;BMP_pressure;BME280_temperature;BME280_humidity;BME280_pressure;Samples;Min_cycle;Max_cycle;Signal;HPM_P1;HPM_P2
2021/12/27 00:02:19;;;;;;;44.22;23.00;;;3.90;99.90;;;;;;4981584;28;20027;-56
2021/12/27 00:04:45;;;;;;;36.38;21.67;;;3.80;99.90;;;;;;4982261;28;20030;-57
2021/12/27 00:07:10;;;;;;;42.30;21.80;;;3.90;99.90;;;;;;4982486;28;20023;-55
2021/12/27 00:09:36;;;;;;;43.20;22.45;;;3.90;99.90;;;;;;4980702;28;20078;-56
2021/12/27 00:12:03;;;;;;;41.03;21.52;;;3.80;99.90;;;;;;4981676;28;20035;-53
2021/12/27 00:14:28;;;;;;;40.80;20.90;;;3.80;99.90;;;;;;4981396;28;20018;-55
2021/12/27 00:16:54;;;;;;;38.13;22.42;;;3.80;99.90;;;;;;4961669;28;20046;-51
2021/12/27 00:19:19;;;;;;;35.95;21.00;;;3.90;99.90;;;;;;4961669;29;20031;-54
2021/12/27 00:21:45;;;;;;;35.60;20.70;;;3.80;99.90;;;;;;4963365;28;20042;-54
2021/12/27 00:24:10;;;;;;;32.13;19.95;;;3.90;99.90;;;;;;4962493;29;20031;-49
2021/12/27 00:26:36;;;;;;;34.08;20.13;;;3.90;99.90;;;;;;4977433;28;20035;-55
2021/12/27 00:29:01;;;;;;;31.00;18.63;;;4.00;99.90;;;;;;4981281;28;20121;-57
2021/12/27 00:31:27;;;;;;;34.25;19.70;;;4.00;99.90;;;;;;4967353;28;20483;-56
2021/12/27 00:33:52;;;;;;;32.42;19.98;;;4.00;99.90;;;;;;4966004;28;20039;-55
2021/12/27 00:36:18;;;;;;;32.47;18.83;;;4.10;99.90;;;;;;4981059;28;20031;-56
2021/12/27 00:38:43;;;;;;;30.30;17.92;;;4.20;99.90;;;;;;4961560;28;20031;-58
2021/12/27 00:41:09;;;;;;;32.08;19.50;;;4.30;99.90;;;;;;4960962;28;20208;-56
2021/12/27 00:43:34;;;;;;;33.97;19.95;;;4.30;99.90;;;;;;4962641;28;20027;-55
2021/12/27 00:46:00;;;;;;;34.28;20.25;;;4.20;99.90;;;;;;4972958;28;20066;-56
2021/12/27 00:48:26;;;;;;;34.95;18.40;;;4.10;99.90;;;;;;4961699;29;20042;-56
2021/12/27 00:50:51;;;;;;;31.98;18.80;;;4.10;99.90;;;;;;4961624;28;20027;-56
2021/12/27 00:53:17;;;;;;;38.03;19.75;;;4.10;99.90;;;;;;4961159;28;20035;-55
2021/12/27 00:55:42;;;;;;;36.58;20.17;;;4.00;99.90;;;;;;4962876;28;20136;-56
2021/12/27 00:58:08;;;;;;;33.75;18.73;;;3.90;99.90;;;;;;4962111;29;20452;-54
2021/12/27 01:00:35;;;;;;;36.30;19.90;;;3.90;99.90;;;;;;4963635;23;20075;-50
2021/12/27 01:03:00;;;;;;;30.55;18.58;;;3.80;99.90;;;;;;4954122;29;20077;-48
2021/12/27 01:05:26;;;;;;;29.38;17.63;;;3.80;99.90;;;;;;4953674;29;20480;-46
2021/12/27 01:07:53;;;;;;;29.58;17.42;;;3.90;99.90;;;;;;4954196;29;20027;-47
2021/12/27 01:10:46;;;;;;;30.15;18.30;;;3.90;99.90;;;;;;4936149;29;20118;-46
2021/12/27 01:13:19;;;;;;;25.50;17.45;;;3.90;99.90;;;;;;4953441;29;20038;-49
2021/12/27 01:15:49;;;;;;;27.38;17.35;;;3.90;99.90;;;;;;4953894;29;20090;-46
2021/12/27 01:18:17;;;;;;;31.40;17.27;;;3.90;99.90;;;;;;4954126;29;20037;-45
2021/12/27 01:20:43;;;;;;;25.27;17.02;;;3.90;99.90;;;;;;4936146;29;20067;-46
2021/12/27 01:23:09;;;;;;;27.98;16.90;;;3.90;99.90;;;;;;4953807;29;20411;-52
2021/12/27 01:25:35;;;;;;;28.63;17.17;;;4.00;99.90;;;;;;4953389;29;20031;-49
2021/12/27 01:28:01;;;;;;;29.83;18.27;;;4.10;99.90;;;;;;4953651;28;20106;-49
2021/12/27 01:30:26;;;;;;;28.80;18.95;;;4.10;99.90;;;;;;4952582;28;20027;-54
2021/12/27 01:32:57;;;;;;;32.85;18.38;;;4.00;99.90;;;;;;4953717;29;20065;-46
2021/12/27 01:35:24;;;;;;;30.30;18.75;;;4.00;99.90;;;;;;4953313;29;20447;-45
2021/12/27 01:37:51;;;;;;;31.05;17.77;;;4.00;99.90;;;;;;4953727;29;20035;-46
2021/12/27 01:40:19;;;;;;;27.42;17.73;;;4.00;99.90;;;;;;4952536;29;20388;-50
2021/12/27 01:43:11;;;;;;;31.05;17.65;;;3.90;99.90;;;;;;4936435;29;20031;-46
2021/12/27 01:45:40;;;;;;;29.67;17.25;;;3.80;99.90;;;;;;4953262;29;20106;-44
2021/12/27 01:48:07;;;;;;;26.20;16.60;;;3.80;99.90;;;;;;4953346;29;20040;-44
2021/12/27 01:50:35;;;;;;;26.77;16.85;;;3.80;99.90;;;;;;4952813;28;20035;-47
2021/12/27 01:53:02;;;;;;;28.83;17.80;;;3.80;99.90;;;;;;4953342;29;20035;-48
2021/12/27 01:55:28;;;;;;;28.75;17.67;;;3.90;99.90;;;;;;4953213;29;20464;-49
2021/12/27 01:57:54;;;;;;;29.15;16.83;;;4.00;99.90;;;;;;4952963;29;20073;-48
2021/12/27 02:00:19;;;;;;;29.83;17.88;;;4.00;99.90;;;;;;4952797;28;20100;-48
2021/12/27 02:02:45;;;;;;;31.80;17.92;;;3.90;99.90;;;;;;4952938;28;20030;-49
2021/12/27 02:05:12;;;;;;;29.58;17.85;;;3.90;99.90;;;;;;4953434;29;20476;-46
2021/12/27 02:07:38;;;;;;;27.25;16.98;;;3.90;99.90;;;;;;4952771;29;20045;-46
2021/12/27 02:10:04;;;;;;;30.65;18.10;;;3.90;99.90;;;;;;4952767;29;20029;-47
2021/12/27 02:12:32;;;;;;;31.35;18.42;;;3.90;99.90;;;;;;4952966;29;20102;-52
2021/12/27 02:14:58;;;;;;;34.38;19.40;;;3.90;99.90;;;;;;4934097;29;20449;-47
2021/12/27 02:17:24;;;;;;;36.47;19.42;;;4.00;99.90;;;;;;4934234;29;20083;-47
2021/12/27 02:19:53;;;;;;;34.20;18.88;;;3.90;99.90;;;;;;4952871;28;20062;-43
2021/12/27 02:22:21;;;;;;;32.70;18.45;;;3.90;99.90;;;;;;4953197;29;20491;-53
2021/12/27 02:24:46;;;;;;;37.42;20.25;;;3.90;99.90;;;;;;4952951;29;20476;-48
2021/12/27 02:27:13;;;;;;;37.75;19.70;;;3.80;99.90;;;;;;4953239;29;20023;-47
2021/12/27 02:29:40;;;;;;;44.60;20.27;;;3.90;99.90;;;;;;4952512;29;20051;-47
2021/12/27 02:32:06;;;;;;;33.47;19.63;;;3.90;99.90;;;;;;4953078;29;20027;-53
2021/12/27 02:34:31;;;;;;;35.35;19.00;;;3.90;99.90;;;;;;4952905;29;20419;-53
2021/12/27 02:36:57;;;;;;;37.45;19.70;;;3.90;99.90;;;;;;4953177;29;20030;-47
2021/12/27 02:39:25;;;;;;;35.40;19.48;;;3.80;99.90;;;;;;4953407;28;20035;-49
2021/12/27 02:41:51;;;;;;;42.78;19.92;;;3.80;99.90;;;;;;4956579;28;20110;-47
2021/12/27 02:44:17;;;;;;;35.22;18.58;;;3.80;99.90;;;;;;4955897;29;20500;-48
2021/12/27 02:46:43;;;;;;;45.60;20.55;;;3.80;99.90;;;;;;4956354;29;20118;-49
2021/12/27 02:49:09;;;;;;;34.92;18.52;;;3.90;99.90;;;;;;4956023;29;20042;-47
2021/12/27 02:51:34;;;;;;;35.83;19.30;;;3.80;99.90;;;;;;4956505;28;20100;-46
2021/12/27 02:54:00;;;;;;;45.20;19.70;;;3.70;99.90;;;;;;4956121;29;20053;-49
2021/12/27 02:56:25;;;;;;;33.92;18.83;;;3.70;99.90;;;;;;4956461;29;20089;-46
2021/12/27 02:58:51;;;;;;;50.42;21.13;;;3.80;99.90;;;;;;4955710;28;20043;-48
2021/12/27 03:01:22;;;;;;;58.00;21.20;;;3.80;99.90;;;;;;4938519;29;20034;-43
2021/12/27 03:03:47;;;;;;;34.70;19.95;;;3.90;99.90;;;;;;4955940;29;20058;-47
2021/12/27 03:06:13;;;;;;;53.85;20.48;;;3.80;99.90;;;;;;4956204;28;20059;-51
2021/12/27 03:08:40;;;;;;;42.13;19.75;;;3.80;99.90;;;;;;4955932;29;20023;-48
2021/12/27 03:11:07;;;;;;;49.88;18.92;;;3.90;99.90;;;;;;4955617;29;20030;-48
2021/12/27 03:13:37;;;;;;;41.42;19.02;;;3.80;99.90;;;;;;4955627;29;20035;-46
2021/12/27 03:16:02;;;;;;;36.13;20.50;;;3.70;99.90;;;;;;4955998;29;20098;-47
2021/12/27 03:18:28;;;;;;;40.08;19.90;;;3.70;99.90;;;;;;4956026;28;20058;-50
2021/12/27 03:20:55;;;;;;;34.92;18.67;;;3.80;99.90;;;;;;4955569;28;20023;-54
2021/12/27 03:23:21;;;;;;;31.38;18.13;;;3.90;99.90;;;;;;4955707;29;20526;-50
2021/12/27 03:25:47;;;;;;;45.47;21.27;;;3.90;99.90;;;;;;4956010;29;20031;-49
2021/12/27 03:28:14;;;;;;;39.70;18.63;;;4.00;99.90;;;;;;4955376;29;20031;-52
2021/12/27 03:30:39;;;;;;;39.33;18.23;;;3.90;99.90;;;;;;4955407;28;20042;-49
2021/12/27 03:33:06;;;;;;;45.22;20.10;;;3.90;99.90;;;;;;4955507;29;20035;-47
2021/12/27 03:35:38;;;;;;;37.10;19.77;;;4.00;99.90;;;;;;4955916;28;20027;-48
2021/12/27 03:38:07;;;;;;;33.60;18.80;;;4.00;99.90;;;;;;4955572;29;20037;-48
2021/12/27 03:40:33;;;;;;;35.35;19.95;;;4.00;99.90;;;;;;4955350;28;20037;-46
2021/12/27 03:42:59;;;;;;;45.63;18.83;;;4.00;99.90;;;;;;4955559;29;20031;-46
2021/12/27 03:45:35;;;;;;;77.55;20.45;;;4.00;99.90;;;;;;4955799;29;20023;-50
2021/12/27 03:48:01;;;;;;;49.78;19.00;;;4.10;99.90;;;;;;4938615;29;20510;-44
2021/12/27 03:50:26;;;;;;;91.47;20.88;;;4.10;99.90;;;;;;4956122;28;20086;-48
2021/12/27 03:52:54;;;;;;;78.07;19.38;;;4.10;99.90;;;;;;4957590;28;20043;-51
2021/12/27 03:55:20;;;;;;;51.80;20.13;;;4.20;99.90;;;;;;4956639;29;20041;-46
2021/12/27 03:57:52;;;;;;;42.33;20.65;;;4.20;99.90;;;;;;4955769;29;20019;-47
2021/12/27 04:02:50;;;;;;;61.13;18.90;;;4.00;99.90;;;;;;4955242;29;20114;-53
2021/12/27 04:05:16;;;;;;;38.25;19.30;;;4.00;99.90;;;;;;4955230;29;20058;-52
2021/12/27 04:07:47;;;;;;;39.97;19.33;;;4.10;99.90;;;;;;4955044;29;20023;-50
2021/12/27 04:10:13;;;;;;;48.50;20.63;;;4.00;99.90;;;;;;4954937;29;20388;-43
2021/12/27 04:12:38;;;;;;;53.25;21.77;;;4.00;99.90;;;;;;4955073;28;20023;-45
2021/12/27 04:15:07;;;;;;;39.35;19.50;;;4.00;99.90;;;;;;4954735;28;20039;-50
2021/12/27 04:17:33;;;;;;;74.93;20.23;;;4.10;99.90;;;;;;4955252;28;20606;-47
2021/12/27 04:19:59;;;;;;;100.25;20.15;;;4.10;99.90;;;;;;4937071;28;20074;-43
2021/12/27 04:22:24;;;;;;;50.10;18.88;;;4.10;99.90;;;;;;4937520;29;20086;-48
2021/12/27 04:24:50;;;;;;;42.60;18.88;;;4.00;99.90;;;;;;4954597;29;20504;-51
2021/12/27 04:27:16;;;;;;;52.88;19.40;;;3.90;99.90;;;;;;4954884;28;20488;-47
2021/12/27 04:29:42;;;;;;;42.30;18.08;;;3.90;99.90;;;;;;4937003;28;20111;-48
2021/12/27 04:32:08;;;;;;;36.35;17.75;;;3.90;99.90;;;;;;4954709;29;20047;-44
2021/12/27 04:34:33;;;;;;;45.17;18.50;;;3.90;99.90;;;;;;4954319;29;20035;-49
2021/12/27 04:36:59;;;;;;;38.35;17.90;;;3.90;99.90;;;;;;4954632;28;20090;-47
2021/12/27 04:39:25;;;;;;;41.78;18.98;;;3.80;99.90;;;;;;4954033;28;20122;-50
2021/12/27 04:41:52;;;;;;;30.60;18.52;;;3.90;99.90;;;;;;4954551;29;20027;-47
2021/12/27 04:44:18;;;;;;;44.08;18.77;;;3.90;99.90;;;;;;4954430;29;20118;-46
2021/12/27 04:46:44;;;;;;;63.63;19.25;;;3.90;99.90;;;;;;4954933;29;20551;-48
2021/12/27 04:49:09;;;;;;;65.72;20.15;;;3.90;99.90;;;;;;4936793;29;20122;-50
2021/12/27 04:51:35;;;;;;;50.58;19.30;;;3.80;99.90;;;;;;4953946;28;20039;-51
2021/12/27 04:54:00;;;;;;;56.72;19.45;;;3.80;99.90;;;;;;4954680;28;20094;-44
2021/12/27 04:56:26;;;;;;;76.43;19.58;;;3.70;99.90;;;;;;4954332;29;20044;-51
2021/12/27 04:58:51;;;;;;;58.80;19.75;;;3.70;99.90;;;;;;4936959;29;20027;-51
2021/12/27 05:01:17;;;;;;;53.20;19.88;;;3.70;99.90;;;;;;4952989;28;20031;-48
2021/12/27 05:03:43;;;;;;;54.25;21.70;;;3.70;99.90;;;;;;4953073;29;20656;-47
2021/12/27 05:06:09;;;;;;;40.05;19.48;;;3.70;99.90;;;;;;4953841;28;20024;-49
2021/12/27 05:08:35;;;;;;;71.55;21.15;;;3.80;99.90;;;;;;4936508;29;20032;-49
2021/12/27 05:11:01;;;;;;;60.42;21.10;;;3.80;99.90;;;;;;4953695;29;20166;-48
2021/12/27 05:13:31;;;;;;;60.33;19.70;;;3.90;99.90;;;;;;4953721;29;20090;-42
2021/12/27 05:15:57;;;;;;;63.17;19.85;;;3.90;99.90;;;;;;4953884;29;20403;-51
2021/12/27 05:18:23;;;;;;;57.85;21.52;;;4.00;99.90;;;;;;4936440;29;20035;-47
2021/12/27 05:20:48;;;;;;;45.97;19.38;;;3.90;99.90;;;;;;4953388;29;20031;-51
2021/12/27 05:23:14;;;;;;;44.03;20.83;;;3.90;99.90;;;;;;4953726;29;20035;-44
2021/12/27 05:25:39;;;;;;;48.47;18.50;;;3.80;99.90;;;;;;4953564;29;20024;-48
2021/12/27 05:28:05;;;;;;;45.05;18.48;;;3.80;99.90;;;;;;4953663;28;20081;-51
2021/12/27 05:30:30;;;;;;;40.75;18.30;;;3.80;99.90;;;;;;4952990;28;20086;-51
2021/12/27 05:32:56;;;;;;;48.72;22.98;;;3.70;99.90;;;;;;4936226;29;20106;-51
2021/12/27 05:35:22;;;;;;;48.05;21.13;;;3.70;99.90;;;;;;4953378;29;20058;-50
2021/12/27 05:37:47;;;;;;;48.13;20.33;;;3.80;99.90;;;;;;4936216;29;20066;-47
2021/12/27 05:40:16;;;;;;;44.20;19.77;;;3.80;99.90;;;;;;4953360;28;20027;-48
2021/12/27 05:42:42;;;;;;;39.13;18.80;;;3.90;99.90;;;;;;4952725;29;20028;-48
2021/12/27 05:45:08;;;;;;;40.50;19.77;;;3.90;99.90;;;;;;4953256;28;20403;-46
2021/12/27 05:47:34;;;;;;;36.72;18.77;;;3.90;99.90;;;;;;4954949;28;20480;-48
2021/12/27 05:50:00;;;;;;;33.50;18.52;;;3.90;99.90;;;;;;4937802;29;20567;-47
2021/12/27 05:52:26;;;;;;;32.25;17.45;;;3.90;99.90;;;;;;4953180;28;20143;-51
2021/12/27 05:54:51;;;;;;;31.17;16.77;;;4.00;99.90;;;;;;4936354;29;20050;-42
2021/12/27 05:57:17;;;;;;;32.85;17.25;;;4.00;99.90;;;;;;4935807;29;20024;-48
2021/12/27 05:59:43;;;;;;;27.60;16.55;;;4.10;99.90;;;;;;4935678;28;20031;-51
2021/12/27 06:02:08;;;;;;;29.83;16.83;;;4.10;99.90;;;;;;4953112;29;20076;-49
2021/12/27 06:04:34;;;;;;;25.25;14.52;;;4.20;99.90;;;;;;4953675;28;20035;-46
2021/12/27 06:06:59;;;;;;;28.45;15.32;;;4.20;99.90;;;;;;4953691;29;20063;-48
2021/12/27 06:09:25;;;;;;;29.02;15.65;;;4.30;99.90;;;;;;4953321;28;20125;-54
2021/12/27 06:11:50;;;;;;;23.55;13.60;;;4.30;99.90;;;;;;4953150;29;20119;-47
2021/12/27 06:14:16;;;;;;;28.55;15.27;;;4.30;99.90;;;;;;4956237;28;20062;-44
2021/12/27 06:16:41;;;;;;;29.95;16.77;;;4.40;99.90;;;;;;4939925;29;20058;-49
2021/12/27 06:19:07;;;;;;;27.63;14.52;;;4.40;99.90;;;;;;4957170;29;20027;-49
2021/12/27 06:21:33;;;;;;;28.20;15.13;;;4.50;99.90;;;;;;4956534;28;20042;-49
2021/12/27 06:24:00;;;;;;;24.77;14.48;;;4.50;99.90;;;;;;4957218;29;20030;-50
2021/12/27 06:26:26;;;;;;;26.25;16.08;;;4.50;99.90;;;;;;4956890;29;20027;-48
2021/12/27 06:28:51;;;;;;;31.23;17.48;;;4.40;99.90;;;;;;4939506;29;20039;-49
2021/12/27 06:31:17;;;;;;;27.70;16.75;;;4.50;99.90;;;;;;4956382;28;20042;-47
2021/12/27 06:33:42;;;;;;;28.90;14.90;;;4.40;99.90;;;;;;4956469;29;20063;-48
2021/12/27 06:36:08;;;;;;;24.48;14.10;;;4.40;99.90;;;;;;4956631;28;20027;-52
2021/12/27 06:38:34;;;;;;;25.45;14.27;;;4.40;99.90;;;;;;4956833;29;20519;-47
2021/12/27 06:41:00;;;;;;;27.45;15.45;;;4.40;99.90;;;;;;4956334;28;20039;-47
2021/12/27 06:43:30;;;;;;;27.73;16.02;;;4.50;99.90;;;;;;4956571;29;20020;-44
2021/12/27 06:45:56;;;;;;;29.73;16.80;;;4.50;99.90;;;;;;4956358;29;20028;-41
2021/12/27 06:48:22;;;;;;;33.72;16.52;;;4.40;99.90;;;;;;4956329;28;20031;-46
2021/12/27 06:50:48;;;;;;;31.83;16.08;;;4.40;99.90;;;;;;4956200;28;20038;-49
2021/12/27 06:53:13;;;;;;;33.00;16.98;;;4.40;99.90;;;;;;4938812;29;20213;-44
2021/12/27 06:55:39;;;;;;;33.53;17.77;;;4.40;99.90;;;;;;4956066;29;20109;-50
2021/12/27 06:58:05;;;;;;;38.80;16.17;;;4.30;99.90;;;;;;4956311;29;20479;-47
2021/12/27 07:03:00;;;;;;;31.63;16.73;;;4.20;99.90;;;;;;4980332;28;20051;-56
2021/12/27 07:05:25;;;;;;;30.02;16.38;;;4.20;99.90;;;;;;4967129;28;20031;-57
2021/12/27 07:07:51;;;;;;;29.48;16.73;;;4.20;99.90;;;;;;4967153;28;20026;-55
2021/12/27 07:10:19;;;;;;;31.63;16.45;;;4.20;99.90;;;;;;4984553;28;20027;-51
2021/12/27 07:12:44;;;;;;;28.83;16.52;;;4.20;99.90;;;;;;4949352;28;20031;-54
2021/12/27 07:15:10;;;;;;;27.70;15.32;;;4.30;99.90;;;;;;4948516;29;20030;-56
2021/12/27 07:17:36;;;;;;;28.67;15.57;;;4.30;99.90;;;;;;4966384;28;20027;-52
2021/12/27 07:20:04;;;;;;;27.15;14.35;;;4.40;99.90;;;;;;4966029;28;20082;-55
2021/12/27 07:22:30;;;;;;;27.52;15.13;;;4.40;99.90;;;;;;4965932;28;20028;-54
2021/12/27 07:24:55;;;;;;;29.63;13.38;;;4.40;99.90;;;;;;4965609;28;20078;-54
2021/12/27 07:27:21;;;;;;;31.75;15.30;;;4.50;99.90;;;;;;4965812;28;20023;-57
2021/12/27 07:29:46;;;;;;;27.27;14.52;;;4.50;99.90;;;;;;4948387;29;20143;-52
2021/12/27 07:32:12;;;;;;;28.48;15.82;;;4.60;99.90;;;;;;4948544;29;20114;-51
2021/12/27 07:34:38;;;;;;;28.60;15.15;;;4.50;99.90;;;;;;4965859;29;20042;-56
2021/12/27 07:37:04;;;;;;;32.17;15.85;;;4.60;99.90;;;;;;4964725;28;20042;-56
2021/12/27 07:39:29;;;;;;;36.85;16.95;;;4.50;99.90;;;;;;4964713;28;20035;-57
2021/12/27 07:41:55;;;;;;;32.42;17.20;;;4.50;99.90;;;;;;4964274;28;20566;-50
2021/12/27 07:44:20;;;;;;;33.00;17.23;;;4.60;99.90;;;;;;4964269;29;20558;-49
2021/12/27 07:46:46;;;;;;;28.00;15.65;;;4.60;99.90;;;;;;4964023;29;20027;-53
2021/12/27 07:49:14;;;;;;;30.80;16.50;;;4.60;99.90;;;;;;4963887;29;20110;-56
2021/12/27 07:51:40;;;;;;;29.67;15.25;;;4.60;99.90;;;;;;4963513;29;20086;-53
2021/12/27 07:54:05;;;;;;;33.22;16.52;;;4.60;99.90;;;;;;4946207;29;20123;-54
2021/12/27 07:56:31;;;;;;;35.28;17.33;;;4.70;99.90;;;;;;4963725;29;20054;-55
2021/12/27 07:59:03;;;;;;;33.55;16.95;;;4.70;99.90;;;;;;4964104;29;20531;-55
2021/12/27 08:01:30;;;;;;;31.27;16.65;;;4.60;99.90;;;;;;4962739;28;20043;-56
2021/12/27 08:03:55;;;;;;;31.48;15.63;;;4.60;99.90;;;;;;4963537;29;20102;-53
2021/12/27 08:06:21;;;;;;;27.05;15.40;;;4.70;99.90;;;;;;4963503;29;20054;-56
2021/12/27 08:08:46;;;;;;;30.10;14.75;;;4.60;99.90;;;;;;4963967;29;20035;-53
2021/12/27 08:11:12;;;;;;;29.50;15.50;;;4.70;99.90;;;;;;4964371;28;20027;-52
2021/12/27 08:13:37;;;;;;;27.83;15.65;;;4.70;99.90;;;;;;4963994;29;20031;-57
2021/12/27 08:16:03;;;;;;;32.15;16.50;;;4.60;99.90;;;;;;4946913;29;20479;-53
2021/12/27 08:18:29;;;;;;;31.45;16.50;;;4.70;99.90;;;;;;4947614;29;20058;-52
2021/12/27 08:20:55;;;;;;;29.50;16.25;;;4.70;99.90;;;;;;4947629;29;20034;-53
2021/12/27 08:23:21;;;;;;;37.17;17.95;;;4.70;99.90;;;;;;4965868;28;20027;-56
2021/12/27 08:25:46;;;;;;;35.95;17.65;;;4.80;99.90;;;;;;4947579;29;20055;-53
2021/12/27 08:28:12;;;;;;;42.50;20.50;;;4.90;99.90;;;;;;4947894;29;20042;-53
2021/12/27 08:30:37;;;;;;;39.28;17.65;;;5.00;99.90;;;;;;4947175;28;20035;-49
2021/12/27 08:33:03;;;;;;;38.88;18.20;;;4.90;99.90;;;;;;4947209;29;20019;-53
2021/12/27 08:35:28;;;;;;;34.42;17.75;;;4.70;99.90;;;;;;4946133;29;20023;-57
2021/12/27 08:37:54;;;;;;;37.15;19.33;;;4.70;99.90;;;;;;4945639;29;20403;-55
2021/12/27 08:40:19;;;;;;;44.10;19.10;;;4.70;99.90;;;;;;4962943;29;20099;-52
2021/12/27 08:42:45;;;;;;;42.47;18.42;;;4.60;99.90;;;;;;4946459;29;20031;-52
2021/12/27 08:45:11;;;;;;;42.95;19.08;;;4.60;99.90;;;;;;4964087;29;20408;-55
2021/12/27 08:47:38;;;;;;;42.33;17.92;;;4.60;99.90;;;;;;4947940;29;20066;-54
2021/12/27 08:50:05;;;;;;;47.20;19.38;;;4.70;99.90;;;;;;4964300;29;20028;-53
2021/12/27 08:52:33;;;;;;;43.63;19.63;;;4.70;99.90;;;;;;4962501;28;20093;-54
2021/12/27 08:55:02;;;;;;;39.58;19.88;;;4.60;99.90;;;;;;4962771;29;20031;-53
2021/12/27 08:57:36;;;;;;;;;;;4.70;99.90;;;;;;5160713;27;20111;-52
2021/12/27 09:00:06;;;;;;;35.97;17.20;;;4.70;99.90;;;;;;5132582;27;19990;-51
2021/12/27 09:02:32;;;;;;;37.13;17.42;;;4.70;99.90;;;;;;5132959;27;20058;-55
2021/12/27 09:04:57;;;;;;;37.88;18.77;;;4.70;99.90;;;;;;5128751;28;20039;-51
2021/12/27 09:07:23;;;;;;;34.13;17.50;;;4.70;99.90;;;;;;5111077;28;20020;-52
2021/12/27 09:09:48;;;;;;;35.63;18.55;;;4.80;99.90;;;;;;5129188;28;20514;-48
2021/12/27 09:12:14;;;;;;;38.47;17.52;;;4.90;99.90;;;;;;5129322;28;20106;-55
2021/12/27 09:14:39;;;;;;;34.10;17.98;;;4.90;99.90;;;;;;5129509;28;20031;-52
2021/12/27 09:17:05;;;;;;;29.27;17.17;;;4.90;99.90;;;;;;5129112;27;20035;-52
2021/12/27 09:19:30;;;;;;;28.02;15.38;;;5.00;99.90;;;;;;5128920;27;20481;-54
2021/12/27 09:21:56;;;;;;;25.98;16.33;;;4.90;99.90;;;;;;5130748;27;20023;-51
2021/12/27 09:24:22;;;;;;;29.80;16.23;;;5.00;99.90;;;;;;5129582;28;20149;-52
2021/12/27 09:26:48;;;;;;;26.20;15.30;;;4.90;99.90;;;;;;5111122;28;20438;-51
2021/12/27 09:29:14;;;;;;;30.05;15.70;;;5.00;99.90;;;;;;5129388;28;20080;-50
2021/12/27 09:31:40;;;;;;;29.65;15.95;;;5.10;99.90;;;;;;5123369;27;20460;-49
2021/12/27 09:34:06;;;;;;;26.48;15.25;;;5.10;99.90;;;;;;5127385;28;20020;-57
2021/12/27 09:36:31;;;;;;;26.88;14.98;;;5.30;99.90;;;;;;5123051;27;20110;-53
2021/12/27 09:38:57;;;;;;;28.55;14.63;;;5.20;99.90;;;;;;5123962;27;20495;-55
2021/12/27 09:41:26;;;;;;;27.27;15.43;;;5.20;99.90;;;;;;5128232;28;20031;-48
2021/12/27 09:43:54;;;;;;;25.30;15.52;;;5.20;99.90;;;;;;5128249;27;20054;-56
2021/12/27 09:46:20;;;;;;;27.65;15.85;;;5.30;99.90;;;;;;5110287;28;20440;-51
2021/12/27 09:48:46;;;;;;;29.08;16.58;;;5.30;99.90;;;;;;5125317;28;20648;-53
2021/12/27 09:51:12;;;;;;;29.83;14.70;;;5.30;99.90;;;;;;5127282;28;20494;-54
2021/12/27 09:53:39;;;;;;;24.10;14.93;;;5.30;99.90;;;;;;5128288;27;20031;-55
2021/12/27 09:56:09;;;;;;;28.60;14.85;;;5.40;99.90;;;;;;5129639;27;20035;-55
2021/12/27 09:58:34;;;;;;;32.25;16.08;;;5.50;99.90;;;;;;5132891;28;20019;-60
2021/12/27 10:01:03;;;;;;;30.98;17.50;;;5.60;99.90;;;;;;5133650;27;20071;-57
2021/12/27 10:03:43;;;;;;;70.10;35.88;;;5.60;99.90;;;;;;5134964;28;20012;-59
2021/12/27 10:06:10;;;;;;;36.42;17.58;;;5.60;99.90;;;;;;5134877;27;20070;-59
2021/12/27 10:08:36;;;;;;;36.80;16.30;;;5.70;99.90;;;;;;5122797;28;20030;-57
2021/12/27 10:11:02;;;;;;;38.50;17.83;;;5.70;99.90;;;;;;5118845;28;20024;-58
2021/12/27 10:13:28;;;;;;;31.30;16.45;;;5.70;99.90;;;;;;5100873;28;20020;-57
2021/12/27 10:15:54;;;;;;;39.67;17.27;;;5.60;99.90;;;;;;5117832;28;20023;-57
2021/12/27 10:18:22;;;;;;;38.65;18.40;;;5.60;99.90;;;;;;5096684;28;20544;-58
2021/12/27 10:20:48;;;;;;;32.50;16.50;;;5.60;99.90;;;;;;5113481;28;20059;-55
2021/12/27 10:23:18;;;;;;;31.13;15.85;;;5.70;99.90;;;;;;5112711;28;20043;-58
2021/12/27 10:25:43;;;;;;;28.05;16.15;;;5.70;99.90;;;;;;5114027;28;20023;-55
2021/12/27 10:28:09;;;;;;;32.80;17.20;;;5.70;99.90;;;;;;5114052;28;20073;-55
2021/12/27 10:30:40;;;;;;;31.60;16.73;;;5.80;99.90;;;;;;5113787;28;20115;-55
2021/12/27 10:33:09;;;;;;;28.63;17.60;;;5.80;99.90;;;;;;5114575;28;20016;-53
2021/12/27 10:35:37;;;;;;;32.00;17.48;;;5.80;99.90;;;;;;5114067;28;20019;-52
2021/12/27 10:38:27;;;;;;;34.33;18.67;;;5.90;99.90;;;;;;5114406;28;20061;-56
2021/12/27 10:41:01;;;;;;;26.83;14.48;;;5.90;99.90;;;;;;5113795;28;20054;-57
2021/12/27 10:43:46;;;;;;;28.92;15.88;;;6.00;99.90;;;;;;5113938;28;20030;-59
2021/12/27 10:46:17;;;;;;;27.27;16.08;;;6.10;99.90;;;;;;5114047;28;20028;-57
2021/12/27 10:48:46;;;;;;;30.90;16.25;;;6.10;99.90;;;;;;5114139;28;20024;-57
2021/12/27 10:51:12;;;;;;;35.60;16.23;;;6.10;99.90;;;;;;5113636;28;20030;-56
2021/12/27 10:53:47;;;;;;;29.92;16.23;;;6.10;99.90;;;;;;5114153;28;20054;-54
2021/12/27 10:56:14;;;;;;;30.20;16.25;;;6.10;99.90;;;;;;5095638;28;20031;-53
2021/12/27 10:58:46;;;;;;;33.70;16.25;;;6.20;99.90;;;;;;5113988;28;20020;-56
2021/12/27 11:01:17;;;;;;;29.25;17.02;;;6.20;99.90;;;;;;5113850;28;20030;-50
2021/12/27 11:03:43;;;;;;;36.72;17.27;;;6.20;99.90;;;;;;5113616;28;20501;-57
2021/12/27 11:06:12;;;;;;;32.20;18.10;;;6.30;99.90;;;;;;5113942;28;20444;-54
2021/12/27 11:08:39;;;;;;;33.75;16.77;;;6.30;99.90;;;;;;5113563;28;20023;-52
2021/12/27 11:11:05;;;;;;;28.75;15.50;;;6.30;99.90;;;;;;5112643;28;20020;-55
2021/12/27 11:13:32;;;;;;;30.70;16.08;;;6.30;99.90;;;;;;5095214;28;20077;-55
2021/12/27 11:15:58;;;;;;;36.15;16.90;;;6.30;99.90;;;;;;5113491;28;20398;-53
2021/12/27 11:18:25;;;;;;;27.50;16.15;;;6.30;99.90;;;;;;5113316;28;20031;-57
2021/12/27 11:21:00;;;;;;;26.92;16.23;;;6.30;99.90;;;;;;5111948;28;20498;-51
2021/12/27 11:23:27;;;;;;;22.42;14.05;;;6.30;99.90;;;;;;5112627;28;20111;-55
2021/12/27 11:26:02;;;;;;;28.65;14.73;;;6.40;99.90;;;;;;5093021;28;20032;-58
2021/12/27 11:28:33;;;;;;;26.02;16.63;;;6.60;99.90;;;;;;5101145;28;20027;-55
2021/12/27 11:31:03;;;;;;;29.20;17.63;;;6.60;99.90;;;;;;5112926;28;20031;-56
2021/12/27 11:33:30;;;;;;;29.55;16.55;;;6.70;99.90;;;;;;5112527;28;20543;-56
2021/12/27 11:35:58;;;;;;;29.10;16.77;;;6.60;99.90;;;;;;5094870;28;20384;-55
2021/12/27 11:38:34;;;;;;;25.17;15.38;;;6.60;99.90;;;;;;5113057;28;20023;-57
2021/12/27 11:41:25;;;;;;;24.77;15.95;;;6.70;99.90;;;;;;5112796;28;20024;-58
2021/12/27 11:43:54;;;;;;;26.50;15.85;;;6.80;99.90;;;;;;5113235;28;20027;-56
2021/12/27 11:46:24;;;;;;;24.83;15.95;;;6.80;99.90;;;;;;5113071;28;20035;-53
2021/12/27 11:48:52;;;;;;;23.65;14.65;;;6.80;99.90;;;;;;5112926;28;20045;-58
2021/12/27 11:51:36;;;;;;;26.63;14.20;;;6.80;99.90;;;;;;5104236;28;20531;-55
2021/12/27 11:54:04;;;;;;;24.02;14.15;;;6.80;99.90;;;;;;5092500;28;20024;-54
2021/12/27 11:56:41;;;;;;;23.40;14.70;;;6.80;99.90;;;;;;5107827;28;20038;-58
2021/12/27 11:59:22;;;;;;;25.00;15.85;;;6.90;99.90;;;;;;5093664;28;20039;-55
2021/12/27 12:01:56;;;;;;;22.05;14.68;;;7.00;99.90;;;;;;5094291;28;20502;-55
2021/12/27 12:04:45;;;;;;;30.52;15.18;;;7.10;99.90;;;;;;5112438;28;20055;-57
2021/12/27 12:07:31;;;;;;;23.80;13.75;;;7.20;99.90;;;;;;5112628;28;20098;-57
2021/12/27 12:09:58;;;;;;;25.88;14.88;;;7.30;99.90;;;;;;5112110;28;20039;-57
2021/12/27 12:12:24;;;;;;;25.67;13.10;;;7.30;99.90;;;;;;5112226;28;20447;-58
2021/12/27 12:15:00;;;;;;;21.35;13.05;;;7.40;99.90;;;;;;5111459;28;20107;-60
2021/12/27 12:17:40;;;;;;;18.63;13.23;;;7.40;99.90;;;;;;5112153;28;20119;-59
2021/12/27 12:20:24;;;;;;;20.90;13.48;;;7.30;99.90;;;;;;5111691;28;20273;-62
2021/12/27 12:22:58;;;;;;;23.75;13.88;;;7.20;99.90;;;;;;5112187;28;20020;-54
2021/12/27 12:25:24;;;;;;;22.92;14.73;;;7.20;99.90;;;;;;5112297;28;20023;-61
2021/12/27 12:28:02;;;;;;;21.15;13.20;;;7.10;99.90;;;;;;5112390;28;20022;-60
2021/12/27 12:30:39;;;;;;;21.08;13.82;;;7.10;99.90;;;;;;5111906;28;20101;-55
2021/12/27 12:33:27;;;;;;;19.85;13.73;;;7.10;99.90;;;;;;5112247;28;20016;-57
2021/12/27 12:35:58;;;;;;;20.60;13.88;;;7.10;99.90;;;;;;5112358;28;20071;-59
2021/12/27 12:38:40;;;;;;;27.00;15.02;;;7.10;99.90;;;;;;5111961;28;20045;-58
2021/12/27 12:41:15;;;;;;;18.17;12.88;;;7.20;99.90;;;;;;5111974;28;20088;-59
2021/12/27 12:43:43;;;;;;;21.38;15.43;;;7.20;99.90;;;;;;5111871;28;20020;-61
2021/12/27 12:46:10;;;;;;;21.13;14.93;;;7.30;99.90;;;;;;5112112;28;20034;-60